Time;durP1;ratioP1;P1;durP2;ratioP2;P2;SDS_P1;SDS_P2;PMS_P1;PMS_P2;Temp;Humidity;BMP_temperature;BMP_pressure;BME280_temperature;BME280_humidity;BME280_pressure;Samples;Min_cycle;Max_cycle;Signal;HPM_P1;HPM_P2
2023/04/01 00:01:55;;;;;;;7.50;5.20;;;;;;;;;;107661;284;41900;-30
2023/04/01 00:04:30;;;;;;;7.00;4.80;;;;;;;;;;107707;281;38938;-30
2023/04/01 00:07:07;;;;;;;7.20;4.80;;;;;;;;;;107659;277;39861;-30
2023/04/01 00:09:43;;;;;;;6.60;5.00;;;;;;;;;;107721;285;42875;-31
2023/04/01 00:12:19;;;;;;;6.70;4.80;;;;;;;;;;107668;285;42265;-31
2023/04/01 00:14:54;;;;;;;6.20;4.80;;;;;;;;;;107705;285;39133;-31
2023/04/01 00:17:29;;;;;;;6.20;4.60;;;;;;;;;;107687;285;40941;-31
2023/04/01 00:20:04;;;;;;;5.90;4.50;;;;;;;;;;107703;282;42895;-31
2023/04/01 00:22:41;;;;;;;6.10;4.50;;;;;;;;;;107672;284;42509;-31
2023/04/01 00:25:16;;;;;;;6.60;4.70;;;;;;;;;;107713;285;38796;-30
2023/04/01 00:27:51;;;;;;;7.20;4.50;;;;;;;;;;107688;277;39924;-31
2023/04/01 00:30:29;;;;;;;6.20;4.50;;;;;;;;;;107685;284;42887;-31
2023/04/01 00:33:07;;;;;;;6.40;5.00;;;;;;;;;;107561;284;42118;-31
2023/04/01 00:35:43;;;;;;;6.90;4.70;;;;;;;;;;107687;277;38849;-31
2023/04/01 00:38:18;;;;;;;6.90;4.70;;;;;;;;;;107708;284;39730;-31
2023/04/01 00:40:52;;;;;;;6.60;4.40;;;;;;;;;;107695;285;43074;-30
2023/04/01 00:43:30;;;;;;;7.00;4.80;;;;;;;;;;107648;284;41921;-31
2023/04/01 00:46:08;;;;;;;6.90;4.80;;;;;;;;;;107703;282;38816;-31
2023/04/01 00:48:52;;;;;;;6.40;4.80;;;;;;;;;;107722;285;39687;-30
2023/04/01 00:51:32;;;;;;;6.80;5.00;;;;;;;;;;107677;285;42963;-31
2023/04/01 00:54:08;;;;;;;6.70;4.70;;;;;;;;;;107698;281;48499;-31
2023/04/01 00:56:49;;;;;;;6.90;5.10;;;;;;;;;;107697;285;38773;-31
2023/04/01 00:59:31;;;;;;;6.10;4.50;;;;;;;;;;107703;282;39711;-30
2023/04/01 01:02:08;;;;;;;6.90;4.90;;;;;;;;;;107685;285;42875;-31
2023/04/01 01:04:47;;;;;;;6.20;4.50;;;;;;;;;;107699;283;42406;-31
2023/04/01 01:07:35;;;;;;;6.80;4.70;;;;;;;;;;107722;285;39883;-31
2023/04/01 01:10:19;;;;;;;6.10;4.40;;;;;;;;;;107709;277;39860;-31
2023/04/01 01:13:04;;;;;;;6.40;4.70;;;;;;;;;;107695;284;42875;-31
2023/04/01 01:15:47;;;;;;;6.00;4.40;;;;;;;;;;107698;285;43457;-30
2023/04/01 01:18:28;;;;;;;6.30;4.70;;;;;;;;;;107692;285;38560;-30
2023/04/01 01:25:14;;;;;;;6.30;4.40;;;;;;;;;;104767;307;560686;-30
2023/04/01 01:28:02;;;;;;;6.20;4.60;;;;;;;;;;107343;289;42873;-32
2023/04/01 01:30:52;;;;;;;6.20;4.50;;;;;;;;;;107358;289;42165;-31
2023/04/01 01:33:48;;;;;;;6.10;4.60;;;;;;;;;;107588;286;39010;-31
2023/04/01 01:36:23;;;;;;;5.90;4.70;;;;;;;;;;107659;286;46994;-31
2023/04/01 01:38:58;;;;;;;6.30;4.40;;;;;;;;;;107229;285;569634;-31
2023/04/01 01:41:36;;;;;;;6.30;4.70;;;;;;;;;;107708;277;42130;-31
2023/04/01 01:44:14;;;;;;;7.30;4.90;;;;;;;;;;107689;284;39082;-31
2023/04/01 01:46:52;;;;;;;6.50;4.50;;;;;;;;;;107718;284;40771;-31
2023/04/01 01:49:31;;;;;;;6.60;4.80;;;;;;;;;;107596;281;196127;-31
2023/04/01 01:52:06;;;;;;;7.20;5.00;;;;;;;;;;107770;284;42249;-31
2023/04/01 01:54:53;;;;;;;6.80;4.50;;;;;;;;;;107705;284;39075;-31
2023/04/01 01:57:32;;;;;;;6.30;4.60;;;;;;;;;;107707;284;39717;-31
2023/04/01 02:00:13;;;;;;;6.30;4.60;;;;;;;;;;107836;276;43901;-30
2023/04/01 02:02:55;;;;;;;6.90;4.80;;;;;;;;;;107824;283;42022;-31
2023/04/01 02:05:34;;;;;;;6.50;4.70;;;;;;;;;;107841;281;38775;-31
2023/04/01 02:08:13;;;;;;;6.10;4.50;;;;;;;;;;107886;281;40791;-31
2023/04/01 02:10:54;;;;;;;6.50;4.90;;;;;;;;;;107929;280;43931;-31
2023/04/01 02:13:37;;;;;;;6.20;4.50;;;;;;;;;;107947;280;42532;-32
2023/04/01 02:16:21;;;;;;;6.60;4.60;;;;;;;;;;107891;280;38901;-31
2023/04/01 02:18:59;;;;;;;6.40;4.70;;;;;;;;;;107949;273;39796;-31
2023/04/01 02:21:37;;;;;;;6.60;4.70;;;;;;;;;;107925;280;42782;-31
2023/04/01 02:24:17;;;;;;;6.10;4.40;;;;;;;;;;107932;285;42421;-31
2023/04/01 02:26:54;;;;;;;6.40;4.40;;;;;;;;;;107895;280;40795;-31
2023/04/01 02:29:31;;;;;;;6.50;4.50;;;;;;;;;;107962;281;41901;-31
2023/04/01 02:32:08;;;;;;;6.40;4.80;;;;;;;;;;107945;273;42907;-31
2023/04/01 02:34:43;;;;;;;6.50;4.70;;;;;;;;;;107918;280;42213;-32
2023/04/01 02:37:18;;;;;;;6.30;4.70;;;;;;;;;;107823;273;38772;-31
2023/04/01 02:39:53;;;;;;;6.20;4.50;;;;;;;;;;107896;281;39704;-31
2023/04/01 02:42:29;;;;;;;6.20;4.40;;;;;;;;;;107855;273;44799;-32
2023/04/01 02:45:07;;;;;;;6.10;4.60;;;;;;;;;;107864;283;43834;-31
2023/04/01 02:47:44;;;;;;;6.20;4.90;;;;;;;;;;107821;281;44856;-31
2023/04/01 02:50:19;;;;;;;6.00;4.40;;;;;;;;;;107874;281;39837;-31
2023/04/01 02:52:56;;;;;;;6.40;4.60;;;;;;;;;;107928;280;42763;-31
2023/04/01 02:55:32;;;;;;;5.90;4.30;;;;;;;;;;107921;280;42214;-31
2023/04/01 02:58:11;;;;;;;6.50;4.80;;;;;;;;;;107739;272;175675;-31
2023/04/01 03:00:46;;;;;;;6.20;4.50;;;;;;;;;;107901;276;39778;-31
2023/04/01 03:03:25;;;;;;;6.30;4.80;;;;;;;;;;107911;280;42878;-31
2023/04/01 03:06:00;;;;;;;6.60;4.70;;;;;;;;;;107901;280;41971;-31
2023/04/01 03:08:34;;;;;;;7.60;4.80;;;;;;;;;;107912;280;45143;-31
2023/04/01 03:11:09;;;;;;;6.30;4.70;;;;;;;;;;107909;280;39669;-31
2023/04/01 03:13:47;;;;;;;6.10;4.60;;;;;;;;;;107876;280;43649;-31
2023/04/01 03:16:21;;;;;;;6.40;4.90;;;;;;;;;;107863;280;41913;-31
2023/04/01 03:18:58;;;;;;;6.80;4.70;;;;;;;;;;107848;281;38960;-32
2023/04/01 03:21:32;;;;;;;6.50;4.90;;;;;;;;;;107935;280;41872;-31
2023/04/01 03:24:07;;;;;;;7.70;5.00;;;;;;;;;;107879;272;42795;-31
2023/04/01 03:26:42;;;;;;;6.90;5.10;;;;;;;;;;107868;280;43282;-32
2023/04/01 03:29:18;;;;;;;6.60;4.90;;;;;;;;;;107933;280;38801;-31
2023/04/01 03:31:54;;;;;;;7.10;5.00;;;;;;;;;;107932;272;39669;-32
2023/04/01 03:34:28;;;;;;;7.00;4.90;;;;;;;;;;107920;280;42801;-30
2023/04/01 03:37:02;;;;;;;6.90;4.60;;;;;;;;;;107861;280;42298;-30
2023/04/01 03:39:36;;;;;;;7.50;5.00;;;;;;;;;;107944;280;38970;-30
2023/04/01 03:42:11;;;;;;;6.90;5.40;;;;;;;;;;107933;280;39712;-30
2023/04/01 03:44:48;;;;;;;6.70;5.00;;;;;;;;;;107944;280;44912;-30
2023/04/01 03:47:22;;;;;;;6.60;5.10;;;;;;;;;;107892;280;43136;-30
2023/04/01 03:49:59;;;;;;;6.80;5.00;;;;;;;;;;107916;280;38591;-30
2023/04/01 03:52:33;;;;;;;6.90;5.20;;;;;;;;;;107961;280;40752;-30
2023/04/01 03:55:10;;;;;;;7.60;5.40;;;;;;;;;;107940;280;42626;-31
2023/04/01 03:57:44;;;;;;;6.50;4.90;;;;;;;;;;108029;270;43261;-31
2023/04/01 04:00:20;;;;;;;6.80;5.20;;;;;;;;;;108072;273;38847;-31
2023/04/01 04:02:54;;;;;;;7.70;5.30;;;;;;;;;;108119;277;39722;-30
2023/04/01 04:05:29;;;;;;;7.20;5.10;;;;;;;;;;107422;269;896479;-31
2023/04/01 04:08:03;;;;;;;6.70;5.30;;;;;;;;;;108064;277;43281;-30
2023/04/01 04:10:39;;;;;;;7.40;5.10;;;;;;;;;;108078;273;38920;-30
2023/04/01 04:13:13;;;;;;;6.70;5.10;;;;;;;;;;108057;277;41693;-30
2023/04/01 04:15:48;;;;;;;7.30;5.10;;;;;;;;;;108116;273;42765;-31
2023/04/01 04:18:24;;;;;;;6.70;5.10;;;;;;;;;;108016;277;42378;-30
2023/04/01 04:21:00;;;;;;;6.40;4.90;;;;;;;;;;108078;277;38931;-30
2023/04/01 04:23:34;;;;;;;6.40;4.90;;;;;;;;;;108070;277;40790;-31
2023/04/01 04:26:11;;;;;;;7.20;5.00;;;;;;;;;;108000;273;175701;-31
2023/04/01 04:28:47;;;;;;;6.60;4.80;;;;;;;;;;108044;277;43460;-32
2023/04/01 04:31:27;;;;;;;6.60;5.00;;;;;;;;;;108056;273;38777;-31
2023/04/01 04:34:04;;;;;;;6.70;4.80;;;;;;;;;;108101;277;39831;-31
2023/04/01 04:36:38;;;;;;;6.70;5.20;;;;;;;;;;108039;269;42835;-32
2023/04/01 04:39:14;;;;;;;6.70;4.80;;;;;;;;;;107865;277;175730;-31
2023/04/01 04:41:51;;;;;;;7.10;5.00;;;;;;;;;;108047;277;38833;-30
2023/04/01 04:44:30;;;;;;;6.20;4.70;;;;;;;;;;108053;277;39686;-31
2023/04/01 04:47:06;;;;;;;6.60;4.50;;;;;;;;;;108098;273;44046;-29
2023/04/01 04:49:41;;;;;;;6.00;4.70;;;;;;;;;;107996;273;42183;-30
2023/04/01 04:52:16;;;;;;;6.00;4.50;;;;;;;;;;108083;277;40870;-30
2023/04/01 04:54:52;;;;;;;5.80;4.10;;;;;;;;;;108070;269;39701;-31
2023/04/01 04:57:29;;;;;;;6.50;4.20;;;;;;;;;;108055;269;43133;-30
2023/04/01 05:00:04;;;;;;;6.20;4.40;;;;;;;;;;108046;277;42159;-31
2023/04/01 05:02:39;;;;;;;6.00;4.50;;;;;;;;;;108020;269;38882;-31
2023/04/01 05:05:18;;;;;;;5.60;4.20;;;;;;;;;;108031;269;39754;-30
2023/04/01 05:07:54;;;;;;;6.30;4.50;;;;;;;;;;108057;277;42761;-31
2023/04/01 05:10:30;;;;;;;6.00;4.20;;;;;;;;;;108074;273;42252;-30
2023/04/01 05:13:06;;;;;;;6.30;4.30;;;;;;;;;;108074;277;38964;-31
2023/04/01 05:15:42;;;;;;;6.10;4.20;;;;;;;;;;108106;277;40000;-31
2023/04/01 05:18:19;;;;;;;6.40;4.30;;;;;;;;;;108072;273;42901;-30
2023/04/01 05:20:55;;;;;;;6.30;4.50;;;;;;;;;;108049;277;43268;-30
2023/04/01 05:23:31;;;;;;;6.10;4.00;;;;;;;;;;108094;273;38858;-30
2023/04/01 05:26:11;;;;;;;6.40;4.20;;;;;;;;;;108076;277;39806;-31
2023/04/01 05:28:46;;;;;;;5.90;4.00;;;;;;;;;;108144;277;44133;-30
2023/04/01 05:31:20;;;;;;;5.50;4.10;;;;;;;;;;108047;269;48224;-31
2023/04/01 05:33:54;;;;;;;5.90;4.10;;;;;;;;;;108086;277;38764;-31
2023/04/01 05:36:30;;;;;;;5.70;4.10;;;;;;;;;;108092;277;42339;-30
2023/04/01 05:39:05;;;;;;;5.70;4.00;;;;;;;;;;107989;271;42810;-31
2023/04/01 05:41:41;;;;;;;5.80;3.90;;;;;;;;;;108062;277;48138;-30
2023/04/01 05:44:20;;;;;;;5.40;3.80;;;;;;;;;;108099;277;40970;-31
2023/04/01 05:46:54;;;;;;;5.30;3.70;;;;;;;;;;108081;269;41971;-31
2023/04/01 05:49:30;;;;;;;6.30;3.90;;;;;;;;;;108040;277;43098;-30
2023/04/01 05:52:04;;;;;;;5.50;3.70;;;;;;;;;;108075;269;48308;-31
2023/04/01 05:54:40;;;;;;;5.30;3.60;;;;;;;;;;108061;269;38924;-31
2023/04/01 05:57:18;;;;;;;5.70;3.90;;;;;;;;;;108105;273;39997;-31
2023/04/01 05:59:52;;;;;;;5.70;3.90;;;;;;;;;;108083;273;42969;-31
2023/04/01 06:02:30;;;;;;;5.10;3.60;;;;;;;;;;108086;273;42143;-30
2023/04/01 06:05:18;;;;;;;5.60;3.90;;;;;;;;;;108095;277;38622;-31
2023/04/01 06:07:53;;;;;;;5.40;3.80;;;;;;;;;;108093;277;40198;-31
2023/04/01 06:10:44;;;;;;;5.20;3.50;;;;;;;;;;108045;269;42838;-30
2023/04/01 06:13:30;;;;;;;5.20;3.40;;;;;;;;;;108091;277;42114;-31
2023/04/01 06:16:15;;;;;;;5.30;3.50;;;;;;;;;;108065;269;38864;-30
2023/04/01 06:19:11;;;;;;;5.10;3.40;;;;;;;;;;108009;278;39849;-30
2023/04/01 06:22:25;;;;;;;7.00;4.10;;;;;;;;;;108112;277;44080;-31
2023/04/01 06:25:27;;;;;;;7.30;4.10;;;;;;;;;;108080;277;42212;-31
2023/04/01 06:28:34;;;;;;;7.60;4.10;;;;;;;;;;108073;277;39936;-31
2023/04/01 06:31:25;;;;;;;6.40;3.90;;;;;;;;;;108028;277;40003;-31
2023/04/01 06:34:31;;;;;;;7.80;4.50;;;;;;;;;;108092;269;42879;-31
2023/04/01 06:37:37;;;;;;;6.80;4.40;;;;;;;;;;108075;277;43274;-30
2023/04/01 06:40:51;;;;;;;6.10;4.00;;;;;;;;;;108052;273;38740;-31
2023/04/01 06:43:37;;;;;;;7.40;4.30;;;;;;;;;;107921;273;175606;-32
2023/04/01 06:46:19;;;;;;;7.80;4.50;;;;;;;;;;108080;277;42571;-30
2023/04/01 06:49:29;;;;;;;7.50;4.50;;;;;;;;;;108077;277;43063;-31
2023/04/01 06:52:17;;;;;;;7.50;4.80;;;;;;;;;;108029;277;38827;-31
2023/04/01 06:54:56;;;;;;;8.30;4.30;;;;;;;;;;108058;277;39666;-31
2023/04/01 06:57:36;;;;;;;8.00;4.10;;;;;;;;;;108057;273;42861;-31
2023/04/01 07:00:26;;;;;;;6.80;3.90;;;;;;;;;;108055;269;43242;-31
2023/04/01 07:03:11;;;;;;;7.70;4.30;;;;;;;;;;107993;269;38860;-30
2023/04/01 07:05:46;;;;;;;7.30;4.20;;;;;;;;;;108088;277;39907;-31
2023/04/01 07:08:24;;;;;;;7.40;4.00;;;;;;;;;;108059;269;43116;-31
2023/04/01 07:11:05;;;;;;;7.30;4.10;;;;;;;;;;108093;277;42264;-31
2023/04/01 07:13:46;;;;;;;7.20;3.70;;;;;;;;;;108063;273;40386;-30
2023/04/01 07:16:27;;;;;;;7.70;3.90;;;;;;;;;;108060;277;39834;-31
2023/04/01 07:19:09;;;;;;;6.60;3.60;;;;;;;;;;107915;277;175575;-32
2023/04/01 07:21:48;;;;;;;6.90;3.80;;;;;;;;;;108065;269;41895;-31
2023/04/01 07:24:30;;;;;;;7.40;3.70;;;;;;;;;;108009;275;45236;-31
2023/04/01 07:27:06;;;;;;;7.10;3.30;;;;;;;;;;107923;271;40852;-31
2023/04/01 07:29:45;;;;;;;6.00;3.40;;;;;;;;;;107919;274;42786;-30
2023/04/01 07:32:43;;;;;;;5.60;3.40;;;;;;;;;;107880;270;43291;-30
2023/04/01 07:35:29;;;;;;;6.30;3.20;;;;;;;;;;107952;276;44610;-32
2023/04/01 07:38:26;;;;;;;6.00;3.60;;;;;;;;;;107966;271;39828;-30
2023/04/01 07:41:18;;;;;;;8.00;3.20;;;;;;;;;;107890;270;42939;-32
2023/04/01 07:44:08;;;;;;;6.20;3.20;;;;;;;;;;107212;270;915185;-32
2023/04/01 07:47:04;;;;;;;6.10;3.50;;;;;;;;;;107905;277;38796;-32
2023/04/01 07:49:57;;;;;;;5.60;3.00;;;;;;;;;;107946;276;39869;-30
2023/04/01 07:52:44;;;;;;;5.80;3.30;;;;;;;;;;107927;277;43106;-32
2023/04/01 07:55:30;;;;;;;6.10;3.20;;;;;;;;;;107913;274;42155;-31
2023/04/01 07:58:20;;;;;;;6.80;3.40;;;;;;;;;;107821;272;175537;-31
2023/04/01 08:01:05;;;;;;;6.10;3.40;;;;;;;;;;107910;271;39842;-31
2023/04/01 08:03:59;;;;;;;6.20;3.20;;;;;;;;;;107872;277;43981;-31
2023/04/01 08:06:46;;;;;;;5.70;3.20;;;;;;;;;;107264;277;896028;-33
2023/04/01 08:09:31;;;;;;;5.70;3.30;;;;;;;;;;107944;277;38786;-31
2023/04/01 08:12:19;;;;;;;6.00;3.40;;;;;;;;;;107971;278;40224;-31
2023/04/01 08:15:07;;;;;;;5.90;3.50;;;;;;;;;;107917;277;42854;-30
2023/04/01 08:17:53;;;;;;;5.80;3.50;;;;;;;;;;107948;277;42131;-30
2023/04/01 08:20:42;;;;;;;5.70;3.60;;;;;;;;;;107937;272;38826;-30
2023/04/01 08:23:24;;;;;;;5.30;3.70;;;;;;;;;;107892;269;41425;-31
2023/04/01 08:26:11;;;;;;;5.70;3.70;;;;;;;;;;107893;270;42781;-31
2023/04/01 08:28:54;;;;;;;5.80;3.50;;;;;;;;;;107953;274;42266;-31
2023/04/01 08:31:44;;;;;;;5.80;3.60;;;;;;;;;;107897;278;38914;-31
2023/04/01 08:34:27;;;;;;;5.50;3.30;;;;;;;;;;107917;278;39670;-31
2023/04/01 08:37:04;;;;;;;;;;;;;;;;;;107932;269;42814;-31
2023/04/01 08:39:44;;;;;;;5.00;3.10;;;;;;;;;;107900;277;41725;-30
2023/04/01 08:42:44;;;;;;;;;;;;;;;;;;107978;274;38860;-31
2023/04/01 08:45:53;;;;;;;6.20;3.30;;;;;;;;;;107859;276;41159;-31
2023/04/01 08:48:54;;;;;;;5.00;3.30;;;;;;;;;;107914;278;42960;-30
2023/04/01 08:52:17;;;;;;;5.20;3.30;;;;;;;;;;108013;277;42262;-31
2023/04/01 08:55:35;;;;;;;5.60;3.60;;;;;;;;;;107925;273;38844;-30
2023/04/01 08:58:55;;;;;;;5.30;3.50;;;;;;;;;;107868;269;41106;-30
2023/04/01 09:01:47;;;;;;;6.30;3.30;;;;;;;;;;107931;276;42895;-30
2023/04/01 09:04:41;;;;;;;5.50;3.50;;;;;;;;;;107999;274;42123;-31
2023/04/01 09:07:37;;;;;;;5.50;3.40;;;;;;;;;;107894;276;44500;-31
2023/04/01 09:10:45;;;;;;;5.20;3.60;;;;;;;;;;107962;272;39932;-31
2023/04/01 09:13:54;;;;;;;5.60;3.60;;;;;;;;;;107943;277;42861;-30
2023/04/01 09:17:02;;;;;;;6.50;3.90;;;;;;;;;;107887;276;42325;-30
2023/04/01 09:20:02;;;;;;;7.40;4.30;;;;;;;;;;107983;277;38766;-31
2023/04/01 09:22:56;;;;;;;6.70;4.20;;;;;;;;;;107928;276;39424;-30
2023/04/01 09:26:04;;;;;;;5.30;3.80;;;;;;;;;;107957;270;43950;-30
2023/04/01 09:28:56;;;;;;;6.80;3.80;;;;;;;;;;107984;278;43471;-30
2023/04/01 09:32:03;;;;;;;5.20;3.40;;;;;;;;;;107916;274;38927;-30
2023/04/01 09:34:58;;;;;;;5.20;3.50;;;;;;;;;;108008;276;39824;-30
2023/04/01 09:38:01;;;;;;;5.30;3.20;;;;;;;;;;107488;271;519118;-30
2023/04/01 09:40:48;;;;;;;5.30;3.50;;;;;;;;;;107965;276;42444;-30
2023/04/01 09:43:46;;;;;;;5.30;3.30;;;;;;;;;;107973;276;38773;-30
2023/04/01 09:46:39;;;;;;;6.10;3.40;;;;;;;;;;107789;278;175565;-30
2023/04/01 09:49:42;;;;;;;5.00;3.10;;;;;;;;;;107981;277;42866;-30
2023/04/01 09:52:25;;;;;;;;;;;;;;;;;;107972;278;42271;-31
2023/04/01 09:55:20;;;;;;;4.90;3.10;;;;;;;;;;108045;276;38745;-31
2023/04/01 09:58:39;;;;;;;6.10;3.20;;;;;;;;;;107950;276;39689;-31
2023/04/01 10:02:00;;;;;;;5.40;3.40;;;;;;;;;;107943;276;44217;-30
2023/04/01 10:05:21;;;;;;;5.10;3.30;;;;;;;;;;107969;277;42262;-30
2023/04/01 10:08:52;;;;;;;5.20;3.40;;;;;;;;;;107958;273;38842;-30
2023/04/01 10:12:03;;;;;;;5.10;3.30;;;;;;;;;;107838;277;175551;-30
2023/04/01 10:15:05;;;;;;;5.20;3.20;;;;;;;;;;108030;282;44868;-31
2023/04/01 10:18:23;;;;;;;5.40;3.40;;;;;;;;;;108004;269;42082;-31
2023/04/01 10:21:23;;;;;;;5.60;3.80;;;;;;;;;;107998;276;38813;-31
2023/04/01 10:24:40;;;;;;;5.50;3.50;;;;;;;;;;108083;269;39725;-31
2023/04/01 10:27:33;;;;;;;5.50;3.40;;;;;;;;;;108020;269;42729;-31
2023/04/01 10:30:43;;;;;;;5.30;3.50;;;;;;;;;;108044;274;42212;-32
2023/04/01 10:34:00;;;;;;;5.70;3.80;;;;;;;;;;107850;278;38771;-30
2023/04/01 10:36:51;;;;;;;5.40;3.80;;;;;;;;;;108062;278;39688;-30
2023/04/01 10:39:51;;;;;;;6.40;4.00;;;;;;;;;;108201;277;50794;-30
2023/04/01 10:43:05;;;;;;;5.40;3.70;;;;;;;;;;108134;277;42292;-30
2023/04/01 10:46:18;;;;;;;5.00;3.30;;;;;;;;;;108159;277;38773;-30
2023/04/01 10:49:33;;;;;;;4.90;3.30;;;;;;;;;;108092;273;39463;-30
2023/04/01 10:52:50;;;;;;;5.90;3.70;;;;;;;;;;107855;277;42832;-30
2023/04/01 10:55:57;;;;;;;4.90;3.50;;;;;;;;;;108072;277;42250;-30
2023/04/01 10:59:43;;;;;;;5.50;3.60;;;;;;;;;;107880;273;40269;-30
2023/04/01 11:02:57;;;;;;;5.30;3.70;;;;;;;;;;107703;283;39880;-31
2023/04/01 11:06:02;;;;;;;5.10;3.50;;;;;;;;;;108035;269;43906;-30
2023/04/01 11:09:18;;;;;;;5.30;3.70;;;;;;;;;;108024;269;42219;-30
2023/04/01 11:12:25;;;;;;;4.90;3.20;;;;;;;;;;108040;276;38876;-30
2023/04/01 11:15:31;;;;;;;5.70;3.60;;;;;;;;;;107953;273;175241;-30
2023/04/01 11:18:44;;;;;;;5.30;3.50;;;;;;;;;;107968;269;42947;-31
2023/04/01 11:21:57;;;;;;;5.00;3.40;;;;;;;;;;108035;276;42154;-31
2023/04/01 11:25:03;;;;;;;5.30;3.40;;;;;;;;;;107997;269;38812;-31
2023/04/01 11:28:07;;;;;;;4.90;3.30;;;;;;;;;;108012;273;40843;-31
2023/04/01 11:31:00;;;;;;;5.80;3.30;;;;;;;;;;108116;269;48856;-31
2023/04/01 11:33:43;;;;;;;5.30;3.40;;;;;;;;;;108092;277;42132;-31
2023/04/01 11:36:29;;;;;;;5.40;3.40;;;;;;;;;;108037;276;39025;-31
2023/04/01 11:39:23;;;;;;;5.50;3.50;;;;;;;;;;108039;273;39872;-31
2023/04/01 11:42:10;;;;;;;4.70;3.20;;;;;;;;;;108011;276;44038;-31
2023/04/01 11:44:57;;;;;;;5.00;3.20;;;;;;;;;;108048;276;42161;-31
2023/04/01 11:47:56;;;;;;;4.70;3.20;;;;;;;;;;108091;276;38767;-31
2023/04/01 11:50:46;;;;;;;4.90;3.10;;;;;;;;;;108019;273;39662;-31
2023/04/01 11:53:32;;;;;;;4.70;3.00;;;;;;;;;;108050;276;42919;-31
2023/04/01 11:56:20;;;;;;;5.10;3.20;;;;;;;;;;108015;277;43342;-31
2023/04/01 11:59:35;;;;;;;5.60;3.30;;;;;;;;;;108008;273;39960;-31
2023/04/01 12:02:21;;;;;;;5.20;3.00;;;;;;;;;;108006;273;45730;-31
2023/04/01 12:05:15;;;;;;;4.90;2.90;;;;;;;;;;108058;273;43051;-29
2023/04/01 12:08:07;;;;;;;5.30;3.10;;;;;;;;;;108051;276;42142;-29
2023/04/01 12:10:50;;;;;;;5.10;3.20;;;;;;;;;;107984;277;38789;-29
2023/04/01 12:13:36;;;;;;;4.80;3.00;;;;;;;;;;108055;276;40737;-29
2023/04/01 12:16:34;;;;;;;5.10;3.00;;;;;;;;;;108076;276;42818;-29
2023/04/01 12:19:19;;;;;;;4.50;2.90;;;;;;;;;;108053;273;42299;-29
2023/04/01 12:22:10;;;;;;;4.40;2.60;;;;;;;;;;108030;276;38761;-29
2023/04/01 12:24:53;;;;;;;4.50;2.50;;;;;;;;;;108030;269;39481;-29
2023/04/01 12:27:45;;;;;;;4.20;2.60;;;;;;;;;;108046;269;42843;-29
2023/04/01 12:30:58;;;;;;;4.30;2.60;;;;;;;;;;108057;269;43536;-29
2023/04/01 12:33:54;;;;;;;4.00;2.40;;;;;;;;;;107874;274;46105;-30
2023/04/01 12:36:46;;;;;;;4.30;2.50;;;;;;;;;;108030;273;40865;-29
2023/04/01 12:39:52;;;;;;;4.90;2.50;;;;;;;;;;107979;276;175573;-29
2023/04/01 12:43:06;;;;;;;4.80;2.60;;;;;;;;;;108035;273;42171;-29
2023/04/01 12:45:48;;;;;;;5.70;2.90;;;;;;;;;;108004;276;39000;-29
2023/04/01 12:49:01;;;;;;;4.60;2.60;;;;;;;;;;108099;273;40868;-29
2023/04/01 12:52:01;;;;;;;5.20;2.50;;;;;;;;;;107995;275;43098;-29
2023/04/01 12:55:29;;;;;;;4.50;2.60;;;;;;;;;;107863;270;175556;-29
2023/04/01 12:58:56;;;;;;;5.30;2.60;;;;;;;;;;108021;269;38813;-29
2023/04/01 13:02:09;;;;;;;4.50;2.60;;;;;;;;;;107986;269;39885;-29
2023/04/01 13:05:15;;;;;;;4.50;2.40;;;;;;;;;;107952;273;48338;-29
2023/04/01 13:08:21;;;;;;;5.10;2.70;;;;;;;;;;108026;277;43269;-29
2023/04/01 13:11:18;;;;;;;4.40;2.40;;;;;;;;;;107960;269;38777;-29
2023/04/01 13:14:42;;;;;;;5.00;2.40;;;;;;;;;;108014;277;39847;-29
2023/04/01 13:17:24;;;;;;;4.70;2.40;;;;;;;;;;108062;277;42863;-29
2023/04/01 13:20:02;;;;;;;;;;;;;;;;;;108087;273;42244;-29
2023/04/01 13:22:56;;;;;;;5.50;2.60;;;;;;;;;;108075;269;38880;-29
2023/04/01 13:25:42;;;;;;;4.80;2.70;;;;;;;;;;108023;269;45553;-29
2023/04/01 13:28:23;;;;;;;4.70;2.40;;;;;;;;;;108029;273;42812;-29
2023/04/01 13:31:10;;;;;;;4.70;2.50;;;;;;;;;;107995;269;44184;-29
2023/04/01 13:33:51;;;;;;;4.80;2.20;;;;;;;;;;108020;273;39990;-29
2023/04/01 13:36:37;;;;;;;4.60;2.30;;;;;;;;;;108063;269;39722;-29
2023/04/01 13:39:35;;;;;;;5.20;2.20;;;;;;;;;;107985;269;44181;-29
2023/04/01 13:42:25;;;;;;;5.10;2.40;;;;;;;;;;107987;277;42176;-29
2023/04/01 13:45:05;;;;;;;4.20;2.20;;;;;;;;;;107989;273;38588;-29
2023/04/01 13:48:04;;;;;;;4.50;2.30;;;;;;;;;;108029;277;39801;-29
2023/04/01 13:50:56;;;;;;;4.60;2.20;;;;;;;;;;107999;269;42798;-29
2023/04/01 13:54:03;;;;;;;4.50;2.00;;;;;;;;;;108047;269;42126;-29
2023/04/01 13:56:55;;;;;;;4.30;2.30;;;;;;;;;;107929;273;44569;-29
2023/04/01 13:59:52;;;;;;;5.50;2.30;;;;;;;;;;108081;269;39699;-29
2023/04/01 14:03:13;;;;;;;5.10;2.30;;;;;;;;;;108051;277;42924;-29
2023/04/01 14:06:08;;;;;;;4.80;2.10;;;;;;;;;;107963;273;42286;-28
2023/04/01 14:09:12;;;;;;;4.50;2.10;;;;;;;;;;108088;273;39021;-28
2023/04/01 14:12:01;;;;;;;4.50;2.10;;;;;;;;;;108079;273;40871;-29
2023/04/01 14:14:54;;;;;;;4.70;1.90;;;;;;;;;;107951;269;43951;-32
2023/04/01 14:17:53;;;;;;;4.20;2.00;;;;;;;;;;107987;273;47987;-32
2023/04/01 14:20:40;;;;;;;4.70;1.90;;;;;;;;;;108029;277;38804;-31
2023/04/01 14:23:36;;;;;;;4.30;1.90;;;;;;;;;;107997;277;41637;-31
2023/04/01 14:26:43;;;;;;;3.80;1.90;;;;;;;;;;108043;277;44040;-33
2023/04/01 14:29:31;;;;;;;3.50;1.70;;;;;;;;;;108063;277;42204;-30
2023/04/01 14:32:21;;;;;;;5.00;2.10;;;;;;;;;;108071;274;38910;-30
2023/04/01 14:35:18;;;;;;;3.80;1.70;;;;;;;;;;108040;269;39695;-30
2023/04/01 14:38:08;;;;;;;4.20;2.00;;;;;;;;;;108131;269;42807;-31
2023/04/01 14:41:00;;;;;;;4.20;1.80;;;;;;;;;;108039;269;42133;-31
2023/04/01 14:44:20;;;;;;;3.70;2.00;;;;;;;;;;108015;277;39051;-31
2023/04/01 14:47:33;;;;;;;4.40;1.90;;;;;;;;;;108451;273;40842;-31
2023/04/01 14:50:16;;;;;;;3.90;1.70;;;;;;;;;;107947;277;42949;-31
2023/04/01 14:53:14;;;;;;;3.80;1.90;;;;;;;;;;107920;269;42565;-31
2023/04/01 14:55:58;;;;;;;3.70;1.90;;;;;;;;;;107991;277;40375;-31
2023/04/01 14:58:46;;;;;;;3.70;1.80;;;;;;;;;;108010;277;45435;-31
2023/04/01 15:01:42;;;;;;;3.70;1.80;;;;;;;;;;108052;276;43970;-31
2023/04/01 15:04:43;;;;;;;4.30;1.80;;;;;;;;;;108053;273;43146;-31
2023/04/01 15:07:41;;;;;;;3.80;1.80;;;;;;;;;;108028;269;38666;-31
2023/04/01 15:10:46;;;;;;;3.80;1.70;;;;;;;;;;108010;276;40900;-31
2023/04/01 15:13:39;;;;;;;3.50;1.90;;;;;;;;;;108065;276;42850;-31
2023/04/01 15:16:24;;;;;;;4.40;1.70;;;;;;;;;;108061;277;42594;-31
2023/04/01 15:19:16;;;;;;;3.70;1.90;;;;;;;;;;108162;277;44494;-31
2023/04/01 15:22:25;;;;;;;4.20;1.80;;;;;;;;;;108073;273;39470;-31
2023/04/01 15:25:23;;;;;;;3.40;1.60;;;;;;;;;;108064;269;42571;-31
2023/04/01 15:28:10;;;;;;;3.50;1.80;;;;;;;;;;107916;269;177587;-31
2023/04/01 15:31:01;;;;;;;3.80;1.90;;;;;;;;;;108060;273;38810;-31
2023/04/01 15:33:53;;;;;;;4.20;2.10;;;;;;;;;;108017;269;40051;-31
2023/04/01 15:36:33;;;;;;;;;;;;;;;;;;108071;277;42813;-31
2023/04/01 15:39:17;;;;;;;4.30;1.90;;;;;;;;;;108026;273;41734;-29
2023/04/01 15:42:12;;;;;;;3.90;1.70;;;;;;;;;;108085;276;38762;-30
2023/04/01 15:45:09;;;;;;;4.40;1.90;;;;;;;;;;108051;269;39717;-29
2023/04/01 15:47:52;;;;;;;4.20;1.90;;;;;;;;;;107959;269;44913;-29
2023/04/01 15:50:51;;;;;;;4.20;2.00;;;;;;;;;;107910;273;175646;-30
2023/04/01 15:53:52;;;;;;;5.00;1.90;;;;;;;;;;107995;273;38776;-30
2023/04/01 15:56:41;;;;;;;5.10;1.90;;;;;;;;;;108062;269;39697;-30
2023/04/01 15:59:37;;;;;;;4.30;1.80;;;;;;;;;;108011;277;43335;-30
2023/04/01 16:02:22;;;;;;;4.30;1.90;;;;;;;;;;108026;276;42138;-30
2023/04/01 16:05:03;;;;;;;4.50;2.00;;;;;;;;;;108024;269;38756;-30
2023/04/01 16:08:02;;;;;;;3.90;1.90;;;;;;;;;;108031;269;39680;-30
2023/04/01 16:10:58;;;;;;;6.70;2.40;;;;;;;;;;108073;269;49279;-30
2023/04/01 16:13:49;;;;;;;4.70;1.80;;;;;;;;;;108052;273;42125;-30
2023/04/01 16:16:47;;;;;;;4.30;1.90;;;;;;;;;;108012;273;38829;-30
2023/04/01 16:19:50;;;;;;;4.30;1.80;;;;;;;;;;107984;269;39812;-30
2023/04/01 16:22:35;;;;;;;4.20;1.90;;;;;;;;;;108059;276;42830;-30
2023/04/01 16:25:32;;;;;;;4.80;1.90;;;;;;;;;;108050;273;42092;-30
2023/04/01 16:28:24;;;;;;;4.20;1.90;;;;;;;;;;108057;276;38824;-30
2023/04/01 16:31:10;;;;;;;3.70;1.80;;;;;;;;;;107493;276;895944;-30
2023/04/01 16:33:56;;;;;;;5.20;2.00;;;;;;;;;;108050;269;43992;-30
2023/04/01 16:36:35;;;;;;;3.50;1.80;;;;;;;;;;108017;273;44441;-30
2023/04/01 16:39:31;;;;;;;4.30;1.70;;;;;;;;;;107991;276;40038;-30
2023/04/01 16:42:33;;;;;;;4.60;1.70;;;;;;;;;;108004;276;39708;-30
2023/04/01 16:45:31;;;;;;;4.00;1.60;;;;;;;;;;108027;276;42854;-30
2023/04/01 16:48:16;;;;;;;4.20;1.70;;;;;;;;;;108068;276;42156;-30
2023/04/01 16:51:01;;;;;;;4.80;1.70;;;;;;;;;;108000;276;38890;-30
2023/04/01 16:53:47;;;;;;;4.00;1.90;;;;;;;;;;108074;276;40756;-30
2023/04/01 16:56:37;;;;;;;4.20;1.80;;;;;;;;;;108053;276;43113;-31